createdAt,value
2017-10-04T07:00:15.031Z,56
2017-10-04T07:01:16.410Z,60
2017-10-04T07:02:38.858Z,64
2017-10-04T07:03:40.261Z,64
2017-10-04T07:04:41.651Z,72
2017-10-04T07:05:43.057Z,72
2017-10-04T07:06:44.452Z,72
2017-10-04T07:07:45.821Z,76
2017-10-04T07:08:47.222Z,80
2017-10-04T07:09:48.738Z,80
2017-10-04T07:10:50.190Z,80
2017-10-04T07:11:51.598Z,80
2017-10-04T07:12:52.997Z,84
2017-10-04T07:13:54.473Z,80
2017-10-04T07:14:55.860Z,80
2017-10-04T07:15:57.271Z,80
2017-10-04T07:16:58.662Z,80
2017-10-04T07:18:00.064Z,76
2017-10-04T07:19:01.458Z,80
2017-10-04T07:20:02.876Z,84
2017-10-04T07:21:04.397Z,84
2017-10-04T07:22:05.795Z,84
2017-10-04T07:23:07.206Z,84
2017-10-04T07:24:08.775Z,88
2017-10-04T07:25:10.160Z,88
2017-10-04T07:26:11.541Z,88
2017-10-04T07:27:12.948Z,92
2017-10-04T07:28:14.840Z,92
2017-10-04T07:29:16.394Z,92
2017-10-04T07:30:18.894Z,92
2017-10-04T07:31:20.439Z,92
2017-10-04T07:32:21.850Z,88
2017-10-04T07:34:03.088Z,88
2017-10-04T07:35:04.505Z,88
2017-10-04T07:36:05.908Z,88
2017-10-04T07:37:07.359Z,84
2017-10-04T07:38:08.774Z,84
2017-10-04T07:39:10.173Z,84
2017-10-04T07:40:11.573Z,84
2017-10-04T07:41:12.957Z,84
2017-10-04T07:42:14.637Z,88
2017-10-04T07:43:16.034Z,88
2017-10-04T07:44:17.429Z,92
2017-10-04T07:45:18.810Z,96
2017-10-04T07:46:20.320Z,100
2017-10-04T07:47:21.717Z,100
2017-10-04T07:48:23.150Z,108
2017-10-04T07:49:24.556Z,116
2017-10-04T07:50:25.968Z,116
2017-10-04T07:51:27.373Z,124
2017-10-04T07:52:28.771Z,124
2017-10-04T07:53:30.165Z,124
2017-10-04T07:54:31.552Z,128
2017-10-04T07:55:32.975Z,128
2017-10-04T07:56:34.381Z,128
2017-10-04T07:57:35.777Z,124
2017-10-04T07:58:37.165Z,120
2017-10-04T07:59:38.578Z,112
2017-10-04T08:00:40.008Z,108
2017-10-04T08:01:41.540Z,108
2017-10-04T08:02:43.039Z,100
2017-10-04T08:03:44.415Z,100
2017-10-04T08:05:25.747Z,96
2017-10-04T08:06:27.129Z,96
2017-10-04T08:07:28.521Z,96
2017-10-04T08:08:29.913Z,100
2017-10-04T08:09:31.299Z,100
2017-10-04T08:10:32.752Z,104
2017-10-04T08:11:34.129Z,104
2017-10-04T08:12:35.528Z,100
2017-10-04T08:13:36.909Z,104
2017-10-04T08:14:38.313Z,104
2017-10-04T08:15:39.702Z,104
2017-10-04T08:16:41.104Z,100
2017-10-04T08:17:42.500Z,100
2017-10-04T08:18:43.894Z,100
2017-10-04T08:19:45.325Z,96
2017-10-04T08:20:46.737Z,100
2017-10-04T08:21:48.116Z,96
2017-10-04T08:22:49.519Z,100
2017-10-04T08:23:51.025Z,96
2017-10-04T08:24:52.425Z,100
2017-10-04T08:25:53.821Z,100
2017-10-04T08:26:55.220Z,100
2017-10-04T08:27:56.630Z,104
2017-10-04T08:28:58.022Z,104
2017-10-04T08:29:59.456Z,104
2017-10-04T08:31:00.886Z,108
2017-10-04T08:32:02.273Z,108
2017-10-04T08:33:03.686Z,112
2017-10-04T08:34:05.095Z,108
2017-10-04T08:35:06.601Z,112
2017-10-04T08:36:47.846Z,112
2017-10-04T08:37:49.250Z,108
2017-10-04T08:38:50.658Z,112
2017-10-04T08:39:52.066Z,112
2017-10-04T08:40:53.526Z,108
2017-10-04T08:41:54.913Z,112
2017-10-04T08:42:56.397Z,112
2017-10-04T08:43:57.786Z,116
2017-10-04T08:44:59.177Z,116
2017-10-04T08:46:00.607Z,120
2017-10-04T08:47:02.031Z,120
2017-10-04T08:48:03.423Z,116
2017-10-04T08:49:04.891Z,124
2017-10-04T08:50:06.318Z,128
2017-10-04T08:51:07.730Z,132
2017-10-04T08:52:09.132Z,140
2017-10-04T08:53:10.543Z,144
2017-10-04T08:54:12.060Z,140
2017-10-04T08:55:13.471Z,136
2017-10-04T08:56:14.891Z,132
2017-10-04T08:57:16.321Z,124
2017-10-04T08:58:17.718Z,120
2017-10-04T08:59:19.144Z,112
2017-10-04T09:00:20.699Z,112
2017-10-04T09:01:22.144Z,104
2017-10-04T09:02:23.535Z,108
2017-10-04T09:03:24.941Z,116
2017-10-04T09:04:26.334Z,120
2017-10-04T09:05:27.858Z,120
2017-10-04T09:06:29.253Z,120
2017-10-04T09:08:10.635Z,116
2017-10-04T09:09:12.179Z,124
2017-10-04T09:10:13.779Z,124
2017-10-04T09:11:15.194Z,128
2017-10-04T09:12:17.516Z,128
2017-10-04T09:13:18.993Z,124
2017-10-04T09:14:20.459Z,136
2017-10-04T09:15:21.878Z,136
2017-10-04T09:16:23.296Z,136
2017-10-04T09:17:24.811Z,136
2017-10-04T09:18:26.221Z,136
2017-10-04T09:19:27.642Z,140
2017-10-04T09:20:29.041Z,140
2017-10-04T09:21:30.666Z,148
2017-10-04T09:22:32.127Z,152
2017-10-04T09:23:33.526Z,156
2017-10-04T09:24:34.947Z,156
2017-10-04T09:25:36.336Z,164
2017-10-04T09:26:37.738Z,168
2017-10-04T09:27:39.960Z,180
2017-10-04T09:28:41.515Z,196
2017-10-04T09:29:42.924Z,212
2017-10-04T09:30:44.324Z,220
2017-10-04T09:31:45.732Z,224
2017-10-04T09:32:47.645Z,288
2017-10-04T09:33:49.058Z,292
2017-10-04T09:34:50.447Z,264
2017-10-04T09:35:51.874Z,264
2017-10-04T09:36:53.267Z,268
2017-10-04T09:37:54.679Z,252
2017-10-04T09:39:36.152Z,248
2017-10-04T09:40:37.561Z,240
2017-10-04T09:41:38.974Z,236
2017-10-04T09:42:40.374Z,240
2017-10-04T09:43:42.114Z,240
2017-10-04T09:44:44.132Z,244
2017-10-04T09:45:44.882Z,248
2017-10-04T09:46:46.293Z,256
2017-10-04T09:47:47.718Z,268
2017-10-04T09:48:49.129Z,268
2017-10-04T09:49:50.673Z,276
2017-10-04T09:50:52.113Z,292
2017-10-04T09:51:53.504Z,256
2017-10-04T09:52:54.899Z,288
2017-10-04T09:53:56.301Z,324
2017-10-04T09:54:57.715Z,340
2017-10-04T09:56:00.030Z,364
2017-10-04T09:57:01.462Z,384
2017-10-04T09:58:02.918Z,424
2017-10-04T09:59:04.314Z,452
2017-10-04T10:00:05.721Z,484
2017-10-04T10:01:07.158Z,504
2017-10-04T10:02:08.621Z,580
2017-10-04T10:03:10.133Z,672
2017-10-04T10:04:11.522Z,932
2017-10-04T10:05:12.926Z,880
2017-10-04T10:06:14.317Z,900
2017-10-04T10:07:15.732Z,968
2017-10-04T10:08:17.128Z,928
2017-10-04T10:09:18.537Z,772
2017-10-04T10:10:59.803Z,1092
2017-10-04T10:12:01.212Z,1128
2017-10-04T10:13:02.695Z,1304
2017-10-04T10:14:04.088Z,1548
2017-10-04T10:15:05.491Z,1480
2017-10-04T10:17:20.135Z,1604
2017-10-04T10:18:21.700Z,1872
2017-10-04T10:19:23.092Z,1584
2017-10-04T10:20:24.510Z,1780
2017-10-04T10:21:25.913Z,1664
2017-10-04T10:22:27.339Z,1456
2017-10-04T10:23:28.781Z,1776
2017-10-04T10:24:30.202Z,1800
2017-10-04T10:25:31.681Z,1664
2017-10-04T10:26:33.094Z,1680
2017-10-04T10:27:34.516Z,1516
2017-10-04T10:28:36.034Z,1732
2017-10-04T10:29:37.595Z,1752
2017-10-04T10:30:39.096Z,1508
2017-10-04T10:31:41.299Z,1684
2017-10-04T10:32:42.693Z,1732
2017-10-04T10:33:44.641Z,1796
2017-10-04T10:34:46.085Z,1720
2017-10-04T10:35:47.524Z,1632
2017-10-04T10:36:48.967Z,1536
2017-10-04T10:38:30.296Z,1408
2017-10-04T10:39:31.708Z,1388
2017-10-04T10:40:33.117Z,1512
2017-10-04T10:41:34.575Z,1536
2017-10-04T10:42:35.976Z,1676
2017-10-04T10:43:37.388Z,1664
2017-10-04T10:44:38.809Z,1660
2017-10-04T10:45:40.233Z,1548
2017-10-04T10:46:41.644Z,1524
2017-10-04T10:47:43.103Z,1736
2017-10-04T10:48:44.507Z,1684
2017-10-04T10:49:45.918Z,1692
2017-10-04T10:50:47.318Z,1544
2017-10-04T10:51:48.732Z,1684
2017-10-04T10:52:50.239Z,1652
2017-10-04T10:53:51.645Z,1600
2017-10-04T10:54:53.060Z,1556
2017-10-04T10:55:54.498Z,1604
2017-10-04T10:56:55.896Z,1664
2017-10-04T10:57:57.322Z,1712
2017-10-04T10:58:58.735Z,1728
2017-10-04T11:00:00.148Z,1688
2017-10-04T11:01:01.596Z,1536
2017-10-04T11:02:03.012Z,1424
2017-10-04T11:03:04.986Z,1380
2017-10-04T11:04:06.539Z,1352
2017-10-04T11:05:07.984Z,960
2017-10-04T11:06:09.385Z,920
2017-10-04T11:07:10.816Z,1160
2017-10-04T11:08:12.219Z,1628
2017-10-04T11:09:53.610Z,1232
2017-10-04T11:10:55.037Z,1620
2017-10-04T11:11:56.718Z,1856
2017-10-04T11:12:58.119Z,1768
2017-10-04T11:13:59.767Z,1876
2017-10-04T11:15:04.217Z,2028
2017-10-04T11:16:05.632Z,2008
2017-10-04T11:17:07.127Z,2264
2017-10-04T11:18:08.614Z,1472
2017-10-04T11:19:10.068Z,1396
2017-10-04T11:20:11.501Z,1220
2017-10-04T11:21:13.074Z,1208
2017-10-04T11:22:14.486Z,1040
2017-10-04T11:23:15.917Z,1068
2017-10-04T11:24:18.031Z,1288
2017-10-04T11:25:19.440Z,900
2017-10-04T11:26:23.372Z,536
2017-10-04T11:27:25.772Z,776
2017-10-04T11:28:27.172Z,896
2017-10-04T11:29:28.600Z,1096
2017-10-04T11:30:30.041Z,1184
2017-10-04T11:31:31.475Z,792
2017-10-04T11:32:33.523Z,640
2017-10-04T11:33:34.955Z,556
2017-10-04T11:34:36.382Z,528
2017-10-04T11:35:37.884Z,788
2017-10-04T11:36:40.007Z,696
2017-10-04T11:37:41.447Z,596
2017-10-04T11:38:42.859Z,644
2017-10-04T11:39:44.252Z,924
2017-10-04T11:41:27.153Z,780
2017-10-04T11:42:29.052Z,904
2017-10-04T11:43:30.467Z,1224
2017-10-04T11:44:36.751Z,1080
2017-10-04T11:45:40.365Z,876
2017-10-04T11:46:41.770Z,1044
2017-10-04T11:47:44.396Z,804
2017-10-04T11:48:46.372Z,764
2017-10-04T11:49:48.514Z,676
2017-10-04T11:50:49.925Z,876
2017-10-04T11:51:51.341Z,756
2017-10-04T11:52:52.747Z,608
2017-10-04T11:53:54.171Z,640
2017-10-04T11:54:55.578Z,764
2017-10-04T11:55:57.028Z,984
2017-10-04T11:56:58.464Z,948
2017-10-04T11:57:59.925Z,932
2017-10-04T11:59:01.388Z,844
2017-10-04T12:00:02.791Z,784
2017-10-04T12:01:04.190Z,708
2017-10-04T12:02:05.582Z,768
2017-10-04T12:03:07.006Z,664
2017-10-04T12:04:08.521Z,620
2017-10-04T12:05:09.966Z,668
2017-10-04T12:06:11.441Z,696
2017-10-04T12:07:13.777Z,796
2017-10-04T12:08:15.693Z,712
2017-10-04T12:09:17.373Z,584
2017-10-04T12:10:18.982Z,488
2017-10-04T12:11:21.200Z,412
2017-10-04T12:13:06.032Z,324
2017-10-04T12:14:08.248Z,300
2017-10-04T12:15:30.692Z,320
2017-10-04T12:16:32.672Z,308
2017-10-04T12:17:34.082Z,356
2017-10-04T12:18:35.583Z,400
2017-10-04T12:19:36.995Z,448
2017-10-04T12:20:38.416Z,536
2017-10-04T12:21:40.043Z,496
2017-10-04T12:22:41.533Z,424
2017-10-04T12:23:43.150Z,388
2017-10-04T12:24:44.606Z,432
2017-10-04T12:25:46.166Z,388
2017-10-04T12:26:47.830Z,364
2017-10-04T12:27:49.287Z,376
2017-10-04T12:28:50.769Z,372
2017-10-04T12:29:52.228Z,368
2017-10-04T12:30:53.638Z,336
2017-10-04T12:31:55.061Z,348
2017-10-04T12:32:56.498Z,344
2017-10-04T12:33:57.944Z,312
2017-10-04T12:34:59.385Z,284
2017-10-04T12:36:00.813Z,284
2017-10-04T12:37:02.321Z,344
2017-10-04T12:38:03.930Z,448
2017-10-04T12:39:05.473Z,412
2017-10-04T12:40:07.275Z,424
2017-10-04T12:41:09.110Z,460
2017-10-04T12:42:10.528Z,444
2017-10-04T12:43:12.175Z,412
2017-10-04T12:44:13.703Z,384
2017-10-04T12:45:15.163Z,412
2017-10-04T12:46:56.656Z,504
2017-10-04T12:47:58.089Z,484
2017-10-04T12:48:59.631Z,408
2017-10-04T12:50:01.063Z,404
2017-10-04T12:51:02.941Z,440
2017-10-04T12:52:04.367Z,392
2017-10-04T12:53:06.004Z,616
2017-10-04T12:54:07.476Z,532
2017-10-04T12:55:08.983Z,452
2017-10-04T12:56:10.372Z,568
2017-10-04T12:57:11.839Z,544
2017-10-04T12:58:13.282Z,484
2017-10-04T12:59:14.684Z,380
2017-10-04T13:00:16.133Z,496
2017-10-04T13:01:17.538Z,484
2017-10-04T13:02:19.705Z,412
2017-10-04T13:03:21.165Z,472
2017-10-04T13:04:22.597Z,420
2017-10-04T13:05:24.026Z,524
2017-10-04T13:07:05.901Z,544
2017-10-04T13:08:07.439Z,512
2017-10-04T13:09:08.910Z,548
2017-10-04T13:10:10.393Z,436
2017-10-04T13:11:11.790Z,464
2017-10-04T13:12:13.206Z,448
2017-10-04T13:13:14.706Z,376
2017-10-04T13:14:16.309Z,360
2017-10-04T13:15:17.754Z,332
2017-10-04T13:16:19.293Z,408
2017-10-04T13:17:20.830Z,404
2017-10-04T13:18:22.231Z,468
2017-10-04T13:19:23.705Z,424
2017-10-04T13:20:25.124Z,420
2017-10-04T13:21:26.561Z,364
2017-10-04T13:22:28.020Z,328
2017-10-04T13:23:29.653Z,292
2017-10-04T13:24:31.297Z,304
2017-10-04T13:25:32.769Z,320
2017-10-04T13:26:34.267Z,360
2017-10-04T13:27:35.752Z,380
2017-10-04T13:28:37.348Z,396
2017-10-04T13:29:38.748Z,388
2017-10-04T13:30:40.134Z,388
2017-10-04T13:31:41.530Z,420
2017-10-04T13:32:42.942Z,436
2017-10-04T13:33:44.446Z,424
2017-10-04T13:34:46.139Z,444
2017-10-04T13:35:47.648Z,396
2017-10-04T13:36:51.528Z,312
2017-10-04T13:38:34.565Z,348
2017-10-04T13:39:35.020Z,336
2017-10-04T13:40:56.839Z,288
2017-10-04T13:41:58.336Z,280
2017-10-04T13:42:59.755Z,264
2017-10-04T13:44:01.271Z,292
2017-10-04T13:45:02.688Z,292
2017-10-04T13:46:04.160Z,308
2017-10-04T13:47:05.564Z,300
2017-10-04T13:48:06.980Z,308
2017-10-04T13:49:08.472Z,328
2017-10-04T13:50:09.943Z,324
2017-10-04T13:51:11.441Z,312
2017-10-04T13:52:12.889Z,296
2017-10-04T13:53:14.401Z,316
2017-10-04T13:54:16.080Z,296
2017-10-04T13:55:17.701Z,280
2017-10-04T13:56:19.407Z,268
2017-10-04T13:57:20.835Z,256
2017-10-04T13:58:22.240Z,256
2017-10-04T13:59:23.683Z,268
2017-10-04T14:00:25.108Z,276
2017-10-04T14:01:26.570Z,260
2017-10-04T14:02:28.159Z,264
2017-10-04T14:03:29.585Z,252
2017-10-04T14:04:31.191Z,244
2017-10-04T14:05:32.635Z,272
2017-10-04T14:06:34.157Z,248
2017-10-04T14:07:35.764Z,224
2017-10-04T14:08:37.250Z,212
2017-10-04T14:09:38.656Z,216
2017-10-04T14:10:40.058Z,212
2017-10-04T14:12:21.656Z,248
2017-10-04T14:13:23.131Z,328
2017-10-04T14:14:24.618Z,308
2017-10-04T14:15:26.147Z,280
2017-10-04T14:16:27.701Z,276
2017-10-04T14:17:29.205Z,248
2017-10-04T14:18:31.141Z,208
2017-10-04T14:19:32.728Z,248
2017-10-04T14:20:34.147Z,272
2017-10-04T14:21:35.563Z,216
2017-10-04T14:22:36.955Z,196
2017-10-04T14:23:38.462Z,200
2017-10-04T14:24:39.932Z,208
2017-10-04T14:25:41.338Z,208
2017-10-04T14:26:42.805Z,212
2017-10-04T14:27:44.230Z,232
2017-10-04T14:28:45.674Z,248
2017-10-04T14:29:47.079Z,232
2017-10-04T14:30:48.487Z,224
2017-10-04T14:31:49.944Z,200
2017-10-04T14:32:51.360Z,224
2017-10-04T14:33:52.867Z,236
2017-10-04T14:34:54.320Z,236
2017-10-04T14:35:56.022Z,220
2017-10-04T14:36:57.547Z,208
2017-10-04T14:37:59.551Z,196
2017-10-04T14:39:00.302Z,192
2017-10-04T14:40:01.732Z,176
2017-10-04T14:41:03.125Z,196
2017-10-04T14:42:04.575Z,232
2017-10-04T14:43:59.299Z,252
2017-10-04T14:45:01.606Z,264
2017-10-04T14:46:04.204Z,284
2017-10-04T14:47:07.951Z,248
2017-10-04T14:48:11.126Z,284
2017-10-04T14:49:14.572Z,320
2017-10-04T14:51:38.129Z,360
2017-10-04T14:52:41.192Z,408
2017-10-04T14:53:43.734Z,356
2017-10-04T14:54:45.716Z,368
2017-10-04T14:55:47.859Z,392
2017-10-04T14:56:53.427Z,548
2017-10-04T14:58:01.795Z,524
2017-10-04T14:59:52.806Z,572
2017-10-04T15:00:57.795Z,528
2017-10-04T15:02:10.216Z,384
2017-10-04T15:03:14.408Z,312
2017-10-04T15:04:19.574Z,252
2017-10-04T15:05:22.696Z,344
2017-10-04T15:06:27.593Z,260
2017-10-04T15:07:40.698Z,252
2017-10-04T15:08:55.180Z,244
2017-10-04T15:10:01.834Z,252
2017-10-04T15:11:08.681Z,224
2017-10-04T15:12:14.808Z,200
2017-10-04T15:13:18.174Z,192
2017-10-04T15:14:59.450Z,176
2017-10-04T15:16:40.378Z,164
2017-10-04T15:17:41.790Z,144
2017-10-04T15:18:43.186Z,136
2017-10-04T15:19:44.567Z,128
2017-10-04T15:20:45.962Z,124
2017-10-04T15:21:47.354Z,124
2017-10-04T15:22:48.759Z,124
2017-10-04T15:23:50.150Z,116
2017-10-04T15:25:26.657Z,116
2017-10-04T15:26:28.100Z,108
2017-10-04T15:27:29.493Z,104
2017-10-04T15:28:30.887Z,104
2017-10-04T15:29:32.290Z,104
2017-10-04T15:30:33.685Z,100
2017-10-04T15:31:35.109Z,96
2017-10-04T15:32:36.591Z,96
2017-10-04T15:33:38.051Z,92
2017-10-04T15:34:39.446Z,92
2017-10-04T15:35:40.857Z,88
2017-10-04T15:36:42.333Z,84
2017-10-04T15:37:43.839Z,84
2017-10-04T15:38:45.252Z,80
2017-10-04T15:39:46.634Z,76
2017-10-04T15:40:48.044Z,76
2017-10-04T15:41:49.434Z,72
2017-10-04T15:42:50.828Z,76
2017-10-04T15:43:52.218Z,76
2017-10-04T15:44:53.720Z,80
2017-10-04T15:45:55.123Z,76
2017-10-04T15:47:37.903Z,76
